createdAt,value
2022-10-28T00:01:34.042Z,2.92
2022-10-28T00:04:08.143Z,3.22
2022-10-28T00:06:42.339Z,3.35
2022-10-28T00:09:16.171Z,3.10
2022-10-28T00:11:50.071Z,3.25
2022-10-28T00:14:23.917Z,3.60
2022-10-28T00:17:03.058Z,3.75
2022-10-28T00:19:36.940Z,4.78
2022-10-28T00:22:10.799Z,3.72
2022-10-28T00:24:44.874Z,3.03
2022-10-28T00:27:18.797Z,3.92
2022-10-28T00:29:52.627Z,3.22
2022-10-28T00:32:31.847Z,4.10
2022-10-28T00:35:05.683Z,3.30
2022-10-28T00:37:39.516Z,3.53
2022-10-28T00:40:14.113Z,2.92
2022-10-28T00:42:47.952Z,4.50
2022-10-28T00:45:21.814Z,3.35
2022-10-28T00:48:02.305Z,2.85
2022-10-28T00:50:44.307Z,3.55
2022-10-28T00:53:20.860Z,3.00
2022-10-28T00:55:54.675Z,2.70
2022-10-28T00:58:29.135Z,3.20
2022-10-28T01:01:02.976Z,2.90
2022-10-28T01:03:42.615Z,3.05
2022-10-28T01:06:16.388Z,2.85
2022-10-28T01:08:50.254Z,2.92
2022-10-28T01:11:59.759Z,3.25
2022-10-28T01:14:48.479Z,3.30
2022-10-28T01:17:38.507Z,2.75
2022-10-28T01:20:57.256Z,2.80
2022-10-28T01:23:40.011Z,4.93
2022-10-28T01:26:33.579Z,3.40
2022-10-28T01:29:24.638Z,3.72
2022-10-28T01:32:04.483Z,3.22
2022-10-28T01:34:39.896Z,3.38
2022-10-28T01:37:17.822Z,3.45
2022-10-28T01:39:53.359Z,2.60
2022-10-28T01:42:31.175Z,3.65
2022-10-28T01:45:08.050Z,3.90
2022-10-28T01:47:49.103Z,3.30
2022-10-28T01:50:25.518Z,3.03
2022-10-28T01:52:59.647Z,3.33
2022-10-28T01:55:34.643Z,3.75
2022-10-28T01:58:08.520Z,3.55
2022-10-28T02:00:42.466Z,3.60
2022-10-28T02:03:21.956Z,3.90
2022-10-28T02:05:56.576Z,3.72
2022-10-28T02:08:37.676Z,3.58
2022-10-28T02:11:24.717Z,3.25
2022-10-28T02:14:02.016Z,5.35
2022-10-28T02:16:40.497Z,3.00
2022-10-28T02:19:22.385Z,3.25
2022-10-28T02:21:59.504Z,4.13
2022-10-28T02:24:39.055Z,3.85
2022-10-28T02:27:15.197Z,3.33
2022-10-28T02:29:52.081Z,2.90
2022-10-28T02:32:27.702Z,4.47
2022-10-28T02:35:07.255Z,3.60
2022-10-28T02:37:41.170Z,3.25
2022-10-28T02:40:18.056Z,3.70
2022-10-28T02:42:55.958Z,3.13
2022-10-28T02:45:32.132Z,3.10
2022-10-28T02:48:06.614Z,4.22
2022-10-28T02:50:50.362Z,3.20
2022-10-28T02:56:01.436Z,2.95
2022-10-28T02:58:35.323Z,4.05
2022-10-28T03:01:09.265Z,2.95
2022-10-28T03:03:43.221Z,4.00
2022-10-28T03:06:22.400Z,3.25
2022-10-28T03:08:56.449Z,3.63
2022-10-28T03:11:30.457Z,3.47
2022-10-28T03:14:04.336Z,3.95
2022-10-28T03:16:34.071Z,3.45
2022-10-28T03:21:41.401Z,3.53
2022-10-28T03:29:29.340Z,4.38
2022-10-28T03:34:34.079Z,3.92
2022-10-28T03:37:13.231Z,4.63
2022-10-28T03:39:47.484Z,5.10
2022-10-28T03:42:21.736Z,3.42
2022-10-28T03:47:23.522Z,3.80
2022-10-28T03:49:57.402Z,3.28
2022-10-28T03:52:36.589Z,3.67
2022-10-28T03:55:11.001Z,3.78
2022-10-28T03:57:45.000Z,4.05
2022-10-28T04:00:20.310Z,6.70
2022-10-28T04:02:57.535Z,4.40
2022-10-28T04:05:31.964Z,3.85
2022-10-28T04:08:11.860Z,3.80
2022-10-28T04:10:47.485Z,3.78
2022-10-28T04:13:22.261Z,4.20
2022-10-28T04:15:56.132Z,3.50
2022-10-28T04:18:30.456Z,3.53
2022-10-28T04:21:05.191Z,3.80
2022-10-28T04:23:48.399Z,3.65
2022-10-28T04:26:35.699Z,4.15
2022-10-28T04:29:11.280Z,3.60
2022-10-28T04:31:49.964Z,3.40
2022-10-28T04:34:27.032Z,3.67
2022-10-28T04:37:01.509Z,3.72
2022-10-28T04:39:41.385Z,5.03
2022-10-28T04:42:15.572Z,4.20
2022-10-28T04:44:52.514Z,4.80
2022-10-28T04:47:26.976Z,3.22
2022-10-28T04:50:01.250Z,3.60
2022-10-28T04:52:35.787Z,4.18
2022-10-28T04:55:18.985Z,4.03
2022-10-28T04:58:00.153Z,6.10
2022-10-28T05:00:35.033Z,3.35
2022-10-28T05:03:09.629Z,4.07
2022-10-28T05:05:47.928Z,3.40
2022-10-28T05:08:22.415Z,4.35
2022-10-28T05:11:02.310Z,4.18
2022-10-28T05:13:36.792Z,4.80
2022-10-28T05:16:11.994Z,4.60
2022-10-28T05:18:58.655Z,3.80
2022-10-28T05:21:35.685Z,3.67
2022-10-28T05:24:10.077Z,4.35
2022-10-28T05:26:49.691Z,4.70
2022-10-28T05:29:24.624Z,3.40
2022-10-28T05:32:01.126Z,4.53
2022-10-28T05:34:38.688Z,4.93
2022-10-28T05:37:14.228Z,3.50
2022-10-28T05:39:48.400Z,3.60
2022-10-28T05:42:29.151Z,3.17
2022-10-28T05:45:06.433Z,3.85
2022-10-28T05:47:45.728Z,3.80
2022-10-28T05:50:19.886Z,4.75
2022-10-28T05:52:54.041Z,3.83
2022-10-28T05:55:29.427Z,4.28
2022-10-28T05:58:09.034Z,4.30
2022-10-28T06:00:43.043Z,4.28
2022-10-28T06:03:18.139Z,4.53
2022-10-28T06:05:52.208Z,3.45
2022-10-28T06:08:26.098Z,4.45
2022-10-28T06:11:01.885Z,4.53
2022-10-28T06:13:41.014Z,3.50
2022-10-28T06:16:14.898Z,3.45
2022-10-28T06:18:48.710Z,3.80
2022-10-28T06:21:22.515Z,3.83
2022-10-28T06:23:56.496Z,4.72
2022-10-28T06:26:30.465Z,4.40
2022-10-28T06:29:09.585Z,4.00
2022-10-28T06:31:44.881Z,4.10
2022-10-28T06:36:52.344Z,4.03
2022-10-28T06:41:59.972Z,4.10
2022-10-28T06:44:39.139Z,4.22
2022-10-28T06:47:14.468Z,4.90
2022-10-28T06:49:48.312Z,4.47
2022-10-28T06:52:22.196Z,3.85
2022-10-28T06:54:56.003Z,4.10
2022-10-28T06:57:29.905Z,4.18
2022-10-28T07:00:09.518Z,3.67
2022-10-28T07:02:45.210Z,3.92
2022-10-28T07:05:19.363Z,4.03
2022-10-28T07:07:53.491Z,4.00
2022-10-28T07:10:27.581Z,4.10
2022-10-28T07:13:01.695Z,4.20
2022-10-28T07:15:41.232Z,3.97
2022-10-28T07:18:15.061Z,3.45
2022-10-28T07:20:48.910Z,5.07
2022-10-28T07:23:22.738Z,3.22
2022-10-28T07:25:59.823Z,4.70
2022-10-28T07:28:33.999Z,3.53
2022-10-28T07:31:13.302Z,3.78
2022-10-28T07:33:47.202Z,4.03
2022-10-28T07:36:21.129Z,4.10
2022-10-28T07:38:56.306Z,4.32
2022-10-28T07:44:04.197Z,4.63
2022-10-28T07:46:43.877Z,3.35
2022-10-28T07:49:18.619Z,4.18
2022-10-28T07:51:52.466Z,4.07
2022-10-28T07:54:26.299Z,4.78
2022-10-28T07:57:00.155Z,4.15
2022-10-28T07:59:34.180Z,3.60
2022-10-28T08:02:13.463Z,4.07
2022-10-28T08:04:47.384Z,4.32
2022-10-28T08:07:21.540Z,4.03
2022-10-28T08:09:55.463Z,3.53
2022-10-28T08:12:29.541Z,4.03
2022-10-28T08:15:03.894Z,4.65
2022-10-28T08:17:43.120Z,4.47
2022-10-28T08:20:17.301Z,5.10
2022-10-28T08:22:55.012Z,3.78
2022-10-28T08:25:29.171Z,3.45
2022-10-28T08:28:03.634Z,3.78
2022-10-28T08:31:03.963Z,3.85
2022-10-28T08:33:37.649Z,4.10
2022-10-28T08:36:12.137Z,4.60
2022-10-28T08:38:46.192Z,4.60
2022-10-28T08:41:29.111Z,3.70
2022-10-28T08:44:12.619Z,3.60
2022-10-28T08:46:55.948Z,4.03
2022-10-28T08:49:35.728Z,5.35
2022-10-28T08:52:11.942Z,5.07
2022-10-28T08:54:48.455Z,3.63
2022-10-28T08:57:25.140Z,5.78
2022-10-28T09:00:00.943Z,4.13
2022-10-28T09:02:37.664Z,3.83
2022-10-28T09:05:26.215Z,4.55
2022-10-28T09:08:00.187Z,3.95
2022-10-28T09:11:02.981Z,4.07
2022-10-28T09:13:40.880Z,5.50
2022-10-28T09:16:17.563Z,3.72
2022-10-28T09:18:59.125Z,3.83
2022-10-28T09:21:40.059Z,3.58
2022-10-28T09:24:19.667Z,3.80
2022-10-28T09:26:57.680Z,3.70
2022-10-28T09:29:44.170Z,5.70
2022-10-28T09:32:22.349Z,4.13
2022-10-28T09:34:56.518Z,4.50
2022-10-28T09:37:37.218Z,3.83
2022-10-28T09:40:14.046Z,4.28
2022-10-28T09:42:50.383Z,5.13
2022-10-28T09:45:26.291Z,4.68
2022-10-28T09:48:03.529Z,4.32
2022-10-28T09:50:38.769Z,3.97
2022-10-28T09:55:56.957Z,3.90
2022-10-28T09:58:30.969Z,4.07
2022-10-28T10:01:04.895Z,3.70
2022-10-28T10:03:41.035Z,3.67
2022-10-28T10:06:19.626Z,4.43
2022-10-28T10:08:58.831Z,3.75
2022-10-28T10:11:36.360Z,3.72
2022-10-28T10:14:11.785Z,4.00
2022-10-28T10:16:47.404Z,3.97
2022-10-28T10:19:21.259Z,3.70
2022-10-28T10:21:56.486Z,3.42
2022-10-28T10:24:37.626Z,4.07
2022-10-28T10:27:20.785Z,4.07
2022-10-28T10:29:55.450Z,4.13
2022-10-28T10:32:31.868Z,4.55
2022-10-28T10:35:10.242Z,3.65
2022-10-28T10:37:44.249Z,3.92
2022-10-28T10:40:32.185Z,3.85
2022-10-28T10:43:35.698Z,4.55
2022-10-28T10:46:11.159Z,4.22
2022-10-28T10:48:45.023Z,5.05
2022-10-28T10:51:24.075Z,3.83
2022-10-28T10:53:58.593Z,4.00
2022-10-28T10:56:38.553Z,3.65
2022-10-28T10:59:12.882Z,3.97
2022-10-28T11:01:46.868Z,4.67
2022-10-28T11:04:23.348Z,3.90
2022-10-28T11:06:57.773Z,4.70
2022-10-28T11:09:35.314Z,4.05
2022-10-28T11:12:20.692Z,4.78
2022-10-28T11:15:01.804Z,4.40
2022-10-28T11:17:36.321Z,3.47
2022-10-28T11:20:32.076Z,4.18
2022-10-28T11:23:24.783Z,3.75
2022-10-28T11:25:59.194Z,4.70
2022-10-28T11:28:59.961Z,4.25
2022-10-28T11:31:52.722Z,4.32
2022-10-28T11:34:37.221Z,3.95
2022-10-28T11:37:14.275Z,4.47
2022-10-28T11:39:50.776Z,3.65
2022-10-28T11:42:30.107Z,3.58
2022-10-28T11:45:11.642Z,4.28
2022-10-28T11:47:59.575Z,3.90
2022-10-28T11:50:45.877Z,4.13
2022-10-28T11:53:40.010Z,4.20
2022-10-28T11:56:22.623Z,4.45
2022-10-28T11:59:02.486Z,4.43
2022-10-28T12:01:47.996Z,3.80
2022-10-28T12:04:44.105Z,3.95
2022-10-28T12:07:39.824Z,3.95
2022-10-28T12:10:24.391Z,3.45
2022-10-28T12:13:00.287Z,3.83
2022-10-28T12:15:44.338Z,4.00
2022-10-28T12:18:26.900Z,3.65
2022-10-28T12:21:04.486Z,4.00
2022-10-28T12:23:39.858Z,4.47
2022-10-28T12:26:14.965Z,4.15
2022-10-28T12:31:25.943Z,4.05
2022-10-28T12:34:06.024Z,3.97
2022-10-28T12:36:41.052Z,4.18
2022-10-28T12:39:18.250Z,3.65
2022-10-28T12:42:00.034Z,3.58
2022-10-28T12:44:33.952Z,3.65
2022-10-28T12:47:13.410Z,3.80
2022-10-28T12:49:57.429Z,4.60
2022-10-28T12:52:38.627Z,3.50
2022-10-28T12:55:21.379Z,4.22
2022-10-28T12:57:57.739Z,4.50
2022-10-28T13:00:33.462Z,3.25
2022-10-28T13:03:08.700Z,4.68
2022-10-28T13:05:50.858Z,4.53
2022-10-28T13:08:38.420Z,3.58
2022-10-28T13:11:38.380Z,3.55
2022-10-28T13:14:13.366Z,4.25
2022-10-28T13:17:04.808Z,3.80
2022-10-28T13:19:44.734Z,4.55
2022-10-28T13:22:43.287Z,3.63
2022-10-28T13:25:28.696Z,5.03
2022-10-28T13:28:03.245Z,4.38
2022-10-28T13:30:37.457Z,3.72
2022-10-28T13:33:12.939Z,5.30
2022-10-28T13:35:48.229Z,4.82
2022-10-28T13:38:29.373Z,3.90
2022-10-28T13:41:18.242Z,3.67
2022-10-28T13:44:06.005Z,4.60
2022-10-28T13:47:10.380Z,3.83
2022-10-28T13:49:44.254Z,3.97
2022-10-28T13:52:26.169Z,4.53
2022-10-28T13:55:05.489Z,3.88
2022-10-28T13:57:40.825Z,3.90
2022-10-28T14:00:36.004Z,3.30
2022-10-28T14:03:23.652Z,3.85
2022-10-28T14:06:01.649Z,4.82
2022-10-28T14:08:36.990Z,4.53
2022-10-28T14:11:11.872Z,4.10
2022-10-28T14:13:46.680Z,4.03
2022-10-28T14:16:28.486Z,5.05
2022-10-28T14:19:09.331Z,5.32
2022-10-28T14:21:48.240Z,4.50
2022-10-28T14:24:37.842Z,4.80
2022-10-28T14:27:48.497Z,4.72
2022-10-28T14:30:24.544Z,6.03
2022-10-28T14:33:17.904Z,5.60
2022-10-28T14:35:59.066Z,4.60
2022-10-28T14:38:59.669Z,4.20
2022-10-28T14:41:47.020Z,5.32
2022-10-28T14:44:30.643Z,4.32
2022-10-28T14:47:12.731Z,4.53
2022-10-28T14:49:46.533Z,4.55
2022-10-28T14:52:25.965Z,3.92
2022-10-28T14:55:00.569Z,4.60
2022-10-28T14:57:34.771Z,3.80
2022-10-28T15:00:09.979Z,4.70
2022-10-28T15:05:22.294Z,5.32
2022-10-28T15:08:01.566Z,4.32
2022-10-28T15:10:38.296Z,4.50
2022-10-28T15:13:20.034Z,4.03
2022-10-28T15:16:03.774Z,4.72
2022-10-28T15:18:38.673Z,4.57
2022-10-28T15:21:16.398Z,3.80
2022-10-28T15:24:07.964Z,3.97
2022-10-28T15:26:41.933Z,3.83
2022-10-28T15:29:17.157Z,4.63
2022-10-28T15:32:22.225Z,3.83
2022-10-28T15:34:56.207Z,4.47
2022-10-28T15:37:31.057Z,4.50
2022-10-28T15:40:37.120Z,3.30
2022-10-28T15:43:11.377Z,3.72
2022-10-28T15:45:45.503Z,4.60
2022-10-28T15:48:20.136Z,4.35
2022-10-28T15:50:54.048Z,4.03
2022-10-28T15:53:38.359Z,3.88
2022-10-28T15:56:35.160Z,4.03
2022-10-28T15:59:13.574Z,4.82
2022-10-28T16:01:47.645Z,4.78
2022-10-28T16:04:49.454Z,5.95
2022-10-28T16:07:23.322Z,4.68
2022-10-28T16:09:58.766Z,4.28
2022-10-28T16:12:38.787Z,4.32
2022-10-28T16:15:19.014Z,4.95
2022-10-28T16:17:56.364Z,6.10
2022-10-28T16:20:32.095Z,4.90
2022-10-28T16:23:05.978Z,3.80
2022-10-28T16:25:39.906Z,5.03
2022-10-28T16:28:25.222Z,4.03
2022-10-28T16:31:00.170Z,5.72
2022-10-28T16:33:35.997Z,4.95
2022-10-28T16:36:10.070Z,4.30
2022-10-28T16:38:44.056Z,5.18
2022-10-28T16:41:20.691Z,4.78
2022-10-28T16:43:59.879Z,4.68
2022-10-28T16:46:34.075Z,4.05
2022-10-28T16:49:08.098Z,4.88
2022-10-28T16:51:42.061Z,4.43
2022-10-28T16:54:16.183Z,4.35
2022-10-28T16:56:50.083Z,3.65
2022-10-28T16:59:29.334Z,4.47
2022-10-28T17:02:03.994Z,4.35
2022-10-28T17:04:38.029Z,5.22
2022-10-28T17:07:16.020Z,4.10
2022-10-28T17:12:20.899Z,6.53
2022-10-28T17:15:00.121Z,5.53
2022-10-28T17:22:47.053Z,4.22
2022-10-28T17:25:20.923Z,6.30
2022-10-28T17:27:54.939Z,4.72
2022-10-28T17:30:34.552Z,5.65
2022-10-28T17:33:08.432Z,5.80
2022-10-28T17:35:42.634Z,4.40
2022-10-28T17:38:16.649Z,6.75
2022-10-28T17:43:32.176Z,10.20
2022-10-28T17:51:11.392Z,4.93
2022-10-28T17:56:18.285Z,5.60
2022-10-28T18:01:31.095Z,5.65
2022-10-28T18:04:05.724Z,8.85
2022-10-28T18:09:18.200Z,8.65
2022-10-28T18:11:52.222Z,7.30
2022-10-28T18:17:13.488Z,5.03
2022-10-28T18:27:47.612Z,5.95
2022-10-28T18:30:16.298Z,5.40
2022-10-28T18:32:55.826Z,5.15
2022-10-28T18:35:30.567Z,6.57
2022-10-28T18:40:38.365Z,4.85
2022-10-28T18:45:41.343Z,5.05
2022-10-28T18:48:20.591Z,5.78
2022-10-28T18:56:12.204Z,5.05
2022-10-28T19:06:47.759Z,6.03
2022-10-28T19:09:21.705Z,5.35
2022-10-28T19:11:55.698Z,6.03
2022-10-28T19:14:29.612Z,5.57
2022-10-28T19:19:35.578Z,7.57
2022-10-28T19:22:17.937Z,5.82
2022-10-28T19:24:51.907Z,6.53
2022-10-28T19:35:04.162Z,6.63
2022-10-28T19:45:52.572Z,4.90
2022-10-28T19:48:26.395Z,4.78
2022-10-28T19:53:35.202Z,5.28
2022-10-28T19:56:09.987Z,5.32
2022-10-28T20:04:07.537Z,7.82
2022-10-28T20:09:17.878Z,6.18
2022-10-28T20:14:42.028Z,5.65
2022-10-28T20:25:22.470Z,6.28
2022-10-28T20:30:24.386Z,5.20
2022-10-28T20:32:58.286Z,6.10
2022-10-28T20:35:32.183Z,5.32
2022-10-28T20:40:41.949Z,6.55
2022-10-28T20:45:44.829Z,5.32
2022-10-28T20:50:56.709Z,6.07
2022-10-28T20:58:40.955Z,5.50
2022-10-28T21:01:18.027Z,5.40
2022-10-28T21:03:52.160Z,5.30
2022-10-28T21:06:26.011Z,5.40
2022-10-28T21:09:01.105Z,5.53
2022-10-28T21:11:35.549Z,9.45
2022-10-28T21:14:14.923Z,5.40
2022-10-28T21:16:48.900Z,6.18
2022-10-28T21:19:22.920Z,6.15
2022-10-28T21:21:56.807Z,4.78
2022-10-28T21:24:31.557Z,5.78
2022-10-28T21:27:05.377Z,6.75
2022-10-28T21:29:44.537Z,7.28
2022-10-28T21:32:18.414Z,5.43
2022-10-28T21:34:52.249Z,5.20
2022-10-28T21:37:26.115Z,5.40
2022-10-28T21:40:01.087Z,5.13
2022-10-28T21:47:57.334Z,7.60
2022-10-28T21:50:31.685Z,5.78
2022-10-28T21:53:07.280Z,5.82
2022-10-28T21:55:46.882Z,5.05
2022-10-28T21:58:22.288Z,6.65
2022-10-28T22:00:56.220Z,6.65
2022-10-28T22:03:35.391Z,6.35
2022-10-28T22:06:09.278Z,5.55
2022-10-28T22:08:43.204Z,5.97
2022-10-28T22:11:18.491Z,5.32
2022-10-28T22:16:25.865Z,5.78
2022-10-28T22:19:05.261Z,6.90
2022-10-28T22:21:40.231Z,5.63
2022-10-28T22:24:14.791Z,6.30
2022-10-28T22:26:48.643Z,6.60
2022-10-28T22:29:22.450Z,6.45
2022-10-28T22:31:56.382Z,5.95
2022-10-28T22:34:35.536Z,6.03
2022-10-28T22:37:09.463Z,6.68
2022-10-28T22:39:43.333Z,5.88
2022-10-28T22:42:17.127Z,5.53
2022-10-28T22:44:51.012Z,6.32
2022-10-28T22:47:24.834Z,7.15
2022-10-28T22:50:04.044Z,5.07
2022-10-28T22:52:37.972Z,5.57
2022-10-28T22:55:12.497Z,5.43
2022-10-28T23:02:53.112Z,6.03
2022-10-28T23:05:32.595Z,6.03
2022-10-28T23:08:06.522Z,6.65
2022-10-28T23:10:40.468Z,6.45
2022-10-28T23:13:17.211Z,5.55
2022-10-28T23:15:51.103Z,5.43
2022-10-28T23:23:42.618Z,9.00
2022-10-28T23:26:16.587Z,6.78
2022-10-28T23:28:50.481Z,6.65
2022-10-28T23:31:24.443Z,6.32
2022-10-28T23:34:00.236Z,7.90
2022-10-28T23:36:35.798Z,7.47
2022-10-28T23:39:15.021Z,8.13
2022-10-28T23:41:48.904Z,7.20
2022-10-28T23:44:22.830Z,6.07
2022-10-28T23:46:56.681Z,7.03
2022-10-28T23:49:30.710Z,5.40
2022-10-28T23:52:04.549Z,6.93
2022-10-28T23:54:43.645Z,5.50
2022-10-28T23:57:17.485Z,4.90
2022-10-28T23:59:51.322Z,6.18
